Time;durP1;ratioP1;P1;durP2;ratioP2;P2;SDS_P1;SDS_P2;PMS_P1;PMS_P2;Temp;Humidity;BMP_temperature;BMP_pressure;BME280_temperature;BME280_humidity;BME280_pressure;Samples;Min_cycle;Max_cycle;Signal;HPM_P1;HPM_P2
2020/12/18 00:01:56;;;;;;;45.12;25.80;;;;;;;5.04;67.30;101823.84;1750338;82;21641;-60
2020/12/18 00:04:24;;;;;;;42.48;24.07;;;;;;;5.04;67.23;101824.67;1750013;82;21284;-59
2020/12/18 00:06:51;;;;;;;48.10;26.57;;;;;;;5.02;67.21;101825.39;1749927;82;20954;-61
2020/12/18 00:09:20;;;;;;;48.78;27.95;;;;;;;5.00;67.18;101829.28;1749440;82;21027;-61
2020/12/18 00:11:48;;;;;;;52.78;27.80;;;;;;;5.01;67.22;101829.60;1749410;82;21546;-61
2020/12/18 00:14:16;;;;;;;54.27;27.75;;;;;;;5.01;67.22;101826.39;1749616;82;21225;-62
2020/12/18 00:16:44;;;;;;;57.13;31.37;;;;;;;5.00;67.27;101823.37;1749597;82;21506;-62
2020/12/18 00:19:12;;;;;;;57.78;31.12;;;;;;;5.04;67.34;101822.48;1749383;82;20937;-62
2020/12/18 00:21:40;;;;;;;59.60;31.93;;;;;;;5.07;67.38;101818.03;1749560;82;21542;-62
2020/12/18 00:24:09;;;;;;;51.95;29.60;;;;;;;5.09;67.37;101820.88;1749640;82;21087;-61
2020/12/18 00:26:37;;;;;;;50.45;29.23;;;;;;;5.09;67.28;101811.44;1749482;82;21012;-62
2020/12/18 00:29:05;;;;;;;50.73;28.47;;;;;;;5.07;67.22;101813.98;1749031;82;21212;-61
2020/12/18 00:31:33;;;;;;;52.75;29.25;;;;;;;5.01;67.27;101809.37;1749142;82;20949;-62
2020/12/18 00:34:00;;;;;;;49.93;28.10;;;;;;;4.99;67.31;101811.44;1749522;82;21013;-61
2020/12/18 00:36:27;;;;;;;39.95;23.35;;;;;;;4.94;67.30;101807.45;1749397;82;21021;-62
2020/12/18 00:38:55;;;;;;;43.80;25.02;;;;;;;4.95;67.31;101809.11;1749548;82;20941;-63
2020/12/18 00:41:26;;;;;;;39.40;24.23;;;;;;;4.90;67.31;101804.81;1749594;82;21353;-63
2020/12/18 00:43:54;;;;;;;42.35;24.55;;;;;;;4.91;67.46;101810.52;1749458;82;21173;-61
2020/12/18 00:46:22;;;;;;;44.20;27.07;;;;;;;4.91;67.48;101809.17;1749477;80;21084;-62
2020/12/18 00:48:50;;;;;;;45.10;25.90;;;;;;;4.91;67.51;101802.95;1749537;82;21004;-63
2020/12/18 00:51:20;;;;;;;46.18;26.57;;;;;;;4.93;67.54;101806.30;1749354;82;20989;-61
2020/12/18 00:53:49;;;;;;;44.03;25.17;;;;;;;4.93;67.57;101800.91;1749615;82;21198;-60
2020/12/18 00:56:17;;;;;;;36.68;20.27;;;;;;;4.96;67.58;101797.81;1748111;82;21180;-63
2020/12/18 00:58:46;;;;;;;35.15;21.52;;;;;;;4.98;67.31;101789.55;1743912;82;20941;-60
2020/12/18 01:01:15;;;;;;;31.55;19.90;;;;;;;4.93;67.25;101795.52;1743980;82;21484;-60
2020/12/18 01:03:44;;;;;;;28.23;17.90;;;;;;;4.91;67.26;101798.90;1743948;82;20934;-60
2020/12/18 01:06:12;;;;;;;19.82;12.93;;;;;;;4.89;67.19;101795.57;1744091;82;22274;-61
2020/12/18 01:08:42;;;;;;;28.45;14.95;;;;;;;4.88;66.83;101792.56;1742763;82;21612;-62
2020/12/18 01:11:11;;;;;;;23.15;14.33;;;;;;;4.87;66.67;101789.55;1744090;82;20961;-61
2020/12/18 01:13:40;;;;;;;29.00;16.50;;;;;;;4.83;66.43;101789.09;1724326;82;21624;-61
2020/12/18 01:16:12;;;;;;;23.35;13.78;;;;;;;4.83;66.55;101789.09;1743938;82;21085;-61
2020/12/18 01:18:41;;;;;;;24.30;14.98;;;;;;;4.81;66.55;101789.77;1744065;82;21496;-60
2020/12/18 01:21:11;;;;;;;23.77;15.15;;;;;;;4.79;66.54;101786.45;1741696;82;21108;-63
2020/12/18 01:23:41;;;;;;;24.60;15.10;;;;;;;4.79;66.52;101786.97;1743968;82;21473;-64
2020/12/18 01:26:10;;;;;;;26.82;15.13;;;;;;;4.78;66.53;101779.39;1744030;82;20989;-62
2020/12/18 01:28:39;;;;;;;25.77;14.15;;;;;;;4.80;66.58;101773.80;1743969;82;21013;-62
2020/12/18 01:31:07;;;;;;;26.15;14.00;;;;;;;4.80;66.57;101773.80;1743897;82;21393;-66
2020/12/18 01:33:36;;;;;;;23.45;13.65;;;;;;;4.78;66.61;101774.00;1743904;82;21819;-62
2020/12/18 01:36:05;;;;;;;22.32;13.28;;;;;;;4.79;66.57;101769.44;1743503;82;21515;-62
2020/12/18 01:38:36;;;;;;;25.57;14.23;;;;;;;4.78;66.50;101772.66;1744032;82;21055;-62
2020/12/18 01:41:04;;;;;;;22.37;14.33;;;;;;;4.77;66.62;101772.34;1743907;82;20953;-62
2020/12/18 01:43:32;;;;;;;23.20;13.62;;;;;;;4.79;66.69;101770.27;1744007;82;21269;-61
2020/12/18 01:46:05;;;;;;;17.42;11.90;;;;;;;4.83;66.62;101765.34;1743944;82;21111;-61
2020/12/18 01:48:32;;;;;;;18.67;11.38;;;;;;;4.86;66.44;101767.62;1743424;82;20941;-62
2020/12/18 01:51:01;;;;;;;16.73;11.03;;;;;;;4.85;66.22;101763.27;1722483;82;21092;-60
2020/12/18 01:53:30;;;;;;;21.52;12.50;;;;;;;4.80;66.29;101763.02;1743955;82;21006;-61
2020/12/18 01:56:01;;;;;;;21.30;11.55;;;;;;;4.79;66.33;101766.74;1721808;82;22272;-61
2020/12/18 01:58:32;;;;;;;18.07;12.23;;;;;;;4.80;66.39;101765.71;1749207;82;20961;-63
2020/12/18 02:01:06;;;;;;;19.50;12.10;;;;;;;4.81;66.38;101771.41;1749713;82;20989;-58
2020/12/18 02:03:39;;;;;;;20.40;12.18;;;;;;;4.80;66.39;101766.54;1749284;82;21590;-61
2020/12/18 02:06:21;;;;;;;17.40;11.13;;;;;;;4.86;66.49;101760.89;1889910;76;22756;-59
2020/12/18 02:09:06;;;;;;;18.90;11.35;;;;;;;4.82;66.33;101763.67;1858768;77;21472;-62
2020/12/18 02:11:42;;;;;;;18.37;11.33;;;;;;;4.82;66.39;101769.90;1859483;77;22507;-61
2020/12/18 02:14:13;;;;;;;18.07;10.88;;;;;;;4.84;66.32;101768.34;1860095;77;20942;-60
2020/12/18 02:16:43;;;;;;;16.25;10.50;;;;;;;4.83;66.19;101763.98;1860370;77;20978;-59
2020/12/18 02:19:12;;;;;;;14.10;10.00;;;;;;;4.84;66.17;101764.30;1859704;77;21033;-59
2020/12/18 02:21:41;;;;;;;16.32;10.63;;;;;;;4.84;66.13;101763.78;1860582;77;21459;-64
2020/12/18 02:24:11;;;;;;;14.80;10.63;;;;;;;4.81;66.11;101760.62;1860995;77;21450;-63
2020/12/18 02:26:38;;;;;;;15.72;10.05;;;;;;;4.82;66.10;101762.33;1827967;77;20950;-64
2020/12/18 02:29:08;;;;;;;13.80;9.65;;;;;;;4.81;66.03;101763.33;1827520;77;21496;-64
2020/12/18 02:31:37;;;;;;;14.63;10.40;;;;;;;4.78;66.02;101759.69;1859067;77;21093;-61
2020/12/18 02:34:07;;;;;;;15.10;10.32;;;;;;;4.79;66.01;101766.23;1857629;77;21084;-65
2020/12/18 02:36:36;;;;;;;16.77;10.88;;;;;;;4.80;66.00;101760.31;1860545;77;21374;-66
2020/12/18 02:39:05;;;;;;;16.95;10.43;;;;;;;4.82;66.01;101762.33;1860522;77;21587;-66
2020/12/18 02:41:34;;;;;;;16.60;10.85;;;;;;;4.85;65.95;101761.92;1860603;77;21121;-64
2020/12/18 02:44:16;;;;;;;16.97;9.65;;;;;;;4.85;65.90;101753.31;1858120;77;21005;-64
2020/12/18 02:46:48;;;;;;;15.78;10.43;;;;;;;4.84;65.82;101756.21;1846589;77;20934;-64
2020/12/18 02:49:15;;;;;;;14.33;9.83;;;;;;;4.80;65.84;101759.80;1826906;78;21362;-66
2020/12/18 02:51:45;;;;;;;14.18;8.80;;;;;;;4.78;65.76;101757.82;1826450;78;21018;-66
2020/12/18 02:54:31;;;;;;;;;;;;;;;4.76;65.78;101765.25;1829683;78;21179;-63
2020/12/18 02:57:18;;;;;;;;;;;;;;;4.76;65.89;101759.86;1829623;78;20131;-64
2020/12/18 02:59:48;;;;;;;13.95;8.53;;;;;;;4.76;65.93;101763.90;1824036;78;20133;-65
2020/12/18 03:02:17;;;;;;;15.15;10.48;;;;;;;4.74;66.01;101758.39;1827077;78;21354;-61
2020/12/18 03:04:47;;;;;;;14.28;9.38;;;;;;;4.72;65.94;101764.50;1827303;78;20973;-61
2020/12/18 03:07:34;;;;;;;15.73;12.00;;;;;;;4.74;65.99;101753.00;1761525;79;27918;-63
2020/12/18 03:10:02;;;;;;;15.85;10.35;;;;;;;4.74;66.12;101753.83;1749432;82;21064;-62
2020/12/18 03:12:30;;;;;;;14.13;9.53;;;;;;;4.84;65.78;101752.17;1749310;82;22451;-62
2020/12/18 03:14:58;;;;;;;16.40;10.05;;;;;;;4.85;65.64;101756.02;1718481;82;21016;-62
2020/12/18 03:17:45;;;;;;;16.95;9.45;;;;;;;4.84;65.65;101760.26;1749342;82;21044;-62
2020/12/18 03:20:14;;;;;;;14.93;9.50;;;;;;;4.81;65.68;101761.46;1749337;82;20890;-62
2020/12/18 03:22:54;;;;;;;15.47;9.97;;;;;;;4.81;65.68;101749.33;1888510;76;22711;-61
2020/12/18 03:25:26;;;;;;;15.05;9.78;;;;;;;4.74;65.80;101753.83;1770857;80;21029;-63
2020/12/18 03:27:58;;;;;;;15.90;9.58;;;;;;;4.72;65.85;101746.98;1847969;77;21256;-63
2020/12/18 03:30:27;;;;;;;16.00;9.60;;;;;;;4.69;65.83;101745.48;1849588;77;21028;-61
2020/12/18 03:32:57;;;;;;;16.97;10.08;;;;;;;4.66;65.83;101748.07;1819067;77;20969;-62
2020/12/18 03:35:25;;;;;;;17.48;11.18;;;;;;;4.64;66.00;101747.41;1849590;77;21495;-62
2020/12/18 03:37:52;;;;;;;16.42;11.00;;;;;;;4.63;65.94;101744.91;1849540;77;20989;-60
2020/12/18 03:40:22;;;;;;;16.70;10.35;;;;;;;4.60;65.92;101746.12;1849653;77;22161;-62
2020/12/18 03:42:52;;;;;;;15.28;9.58;;;;;;;4.59;65.96;101746.32;1848710;77;20973;-63
2020/12/18 03:45:22;;;;;;;14.85;9.78;;;;;;;4.57;65.94;101743.83;1849304;77;20989;-61
2020/12/18 03:48:07;;;;;;;14.83;9.15;;;;;;;4.55;65.99;101749.90;1778577;79;28653;-63
2020/12/18 03:50:45;;;;;;;15.47;9.43;;;;;;;4.57;66.04;101753.26;1888413;75;22753;-61
2020/12/18 03:53:15;;;;;;;13.70;9.28;;;;;;;4.53;66.03;101760.56;1773809;80;21005;-61
2020/12/18 03:55:45;;;;;;;15.78;9.45;;;;;;;4.51;66.11;101757.20;1848757;77;21387;-63
2020/12/18 03:58:33;;;;;;;16.15;8.85;;;;;;;4.50;66.14;101753.68;1848572;77;20935;-61
2020/12/18 04:01:12;;;;;;;13.18;8.58;;;;;;;4.48;66.15;101744.97;1848844;77;20909;-59
2020/12/18 04:03:41;;;;;;;13.35;8.68;;;;;;;4.49;66.16;101753.37;1849423;77;20981;-60
2020/12/18 04:06:10;;;;;;;14.23;9.20;;;;;;;4.48;66.27;101749.52;1849747;77;20965;-60
2020/12/18 04:08:38;;;;;;;13.25;9.10;;;;;;;4.49;66.32;101756.58;1819296;77;22260;-60
2020/12/18 04:11:10;;;;;;;13.32;8.85;;;;;;;4.49;66.27;101756.06;1847980;77;21527;-58
2020/12/18 04:13:46;;;;;;;13.55;8.18;;;;;;;4.50;66.17;101755.03;1847576;77;20901;-59
2020/12/18 04:16:33;;;;;;;15.60;9.03;;;;;;;4.53;65.99;101759.22;1849573;77;20933;-60
2020/12/18 04:19:03;;;;;;;13.20;8.08;;;;;;;4.52;65.89;101758.39;1849664;77;20930;-57
2020/12/18 04:21:34;;;;;;;13.85;9.28;;;;;;;4.53;65.79;101751.13;1849509;77;21190;-60
2020/12/18 04:24:10;;;;;;;15.48;9.53;;;;;;;4.52;65.80;101751.65;1846862;77;21570;-59
2020/12/18 04:26:39;;;;;;;11.33;7.37;;;;;;;4.50;65.91;101751.50;1849426;77;20941;-59
2020/12/18 04:29:08;;;;;;;13.68;8.20;;;;;;;4.48;65.79;101749.52;1819656;77;21014;-57
2020/12/18 04:31:37;;;;;;;11.97;8.18;;;;;;;4.46;65.77;101752.91;1849331;77;21036;-58
2020/12/18 04:34:06;;;;;;;11.22;7.42;;;;;;;4.49;65.77;101749.84;1849595;77;21203;-56
2020/12/18 04:36:35;;;;;;;14.70;8.48;;;;;;;4.51;65.72;101750.47;1844479;77;20968;-57
2020/12/18 04:39:04;;;;;;;13.95;9.20;;;;;;;4.49;65.77;101749.32;1849381;77;20976;-67
2020/12/18 04:41:34;;;;;;;13.58;9.78;;;;;;;4.51;65.73;101750.47;1848514;77;20950;-59
2020/12/18 04:44:04;;;;;;;14.87;9.28;;;;;;;4.50;65.73;101749.64;1813361;77;21044;-59
2020/12/18 04:46:49;;;;;;;13.13;8.37;;;;;;;4.54;65.71;101746.89;1844686;76;22787;-58
2020/12/18 04:49:17;;;;;;;14.75;9.43;;;;;;;4.48;65.73;101750.36;1799664;78;20908;-59
2020/12/18 04:51:47;;;;;;;16.95;11.18;;;;;;;4.49;65.75;101753.37;1799587;79;22048;-60
2020/12/18 04:54:25;;;;;;;17.07;11.10;;;;;;;4.51;65.69;101751.33;1889672;75;22643;-60
2020/12/18 04:56:56;;;;;;;19.07;11.68;;;;;;;4.47;65.75;101753.25;1860449;77;21104;-60
2020/12/18 04:59:26;;;;;;;17.87;11.38;;;;;;;4.47;65.76;101751.91;1801998;77;21192;-57
2020/12/18 05:02:04;;;;;;;20.00;12.37;;;;;;;4.53;65.77;101748.44;1812098;77;22724;-60
2020/12/18 05:04:42;;;;;;;22.87;13.08;;;;;;;4.53;65.78;101758.70;1813562;79;21013;-59
2020/12/18 05:07:20;;;;;;;22.60;14.73;;;;;;;4.55;65.68;101748.55;1872349;75;22674;-62
2020/12/18 05:09:56;;;;;;;22.90;14.75;;;;;;;4.56;65.68;101761.52;1840073;78;21062;-63
2020/12/18 05:12:40;;;;;;;22.03;13.07;;;;;;;4.61;65.70;101764.47;1887534;76;22683;-65
2020/12/18 05:15:10;;;;;;;23.73;14.47;;;;;;;4.59;65.60;101766.53;1774763;80;21041;-65
2020/12/18 05:17:41;;;;;;;20.40;13.05;;;;;;;4.58;65.62;101767.05;1769731;81;21372;-65
2020/12/18 05:20:08;;;;;;;21.50;12.78;;;;;;;4.59;65.43;101768.72;1746425;80;21572;-64
2020/12/18 05:22:38;;;;;;;21.27;13.15;;;;;;;4.58;65.42;101770.27;1737993;81;21049;-66
2020/12/18 05:25:10;;;;;;;19.73;12.45;;;;;;;4.54;65.41;101771.14;1772524;80;21064;-68
2020/12/18 05:27:41;;;;;;;19.25;12.33;;;;;;;4.50;65.37;101779.80;1772908;81;21149;-59
2020/12/18 05:30:10;;;;;;;22.17;14.20;;;;;;;4.46;65.46;101782.55;1722890;80;21493;-58
2020/12/18 05:32:57;;;;;;;22.48;13.58;;;;;;;4.47;65.51;101784.24;1773373;81;21944;-60
2020/12/18 05:35:30;;;;;;;23.00;14.15;;;;;;;4.47;65.55;101781.03;1773311;80;21036;-65
2020/12/18 05:38:16;;;;;;;22.45;12.55;;;;;;;4.49;65.56;101780.83;1732406;81;21656;-65
2020/12/18 05:41:09;;;;;;;23.17;14.10;;;;;;;4.52;65.56;101785.34;1816194;77;22613;-60
2020/12/18 05:43:44;;;;;;;21.30;13.38;;;;;;;4.47;65.60;101786.94;1769852;81;21037;-62
2020/12/18 05:46:28;;;;;;;21.25;14.30;;;;;;;4.43;65.71;101791.34;1816417;78;21265;-66
2020/12/18 05:49:09;;;;;;;21.67;13.77;;;;;;;4.48;65.75;101781.86;1888211;75;22933;-65
2020/12/18 05:51:41;;;;;;;25.30;13.98;;;;;;;4.43;65.75;101783.26;1858855;77;20930;-63
2020/12/18 05:54:19;;;;;;;26.00;15.03;;;;;;;4.43;65.88;101791.86;1858215;77;21368;-64
2020/12/18 05:56:52;;;;;;;26.45;16.10;;;;;;;4.45;65.93;101789.80;1857959;77;21104;-58
2020/12/18 05:59:21;;;;;;;31.15;17.75;;;;;;;4.45;65.88;101791.14;1859953;77;20990;-68
2020/12/18 06:01:54;;;;;;;34.35;18.77;;;;;;;4.45;65.99;101790.31;1858096;77;21046;-61
2020/12/18 06:04:44;;;;;;;31.77;19.30;;;;;;;4.48;65.98;101783.21;1854495;77;21068;-60
2020/12/18 06:07:15;;;;;;;35.70;19.77;;;;;;;4.52;66.03;101789.90;1856973;77;21206;-64
2020/12/18 06:10:04;;;;;;;35.70;23.97;;;;;;;4.56;66.02;101783.94;1855185;75;38228;-66
2020/12/18 06:13:01;;;;;;;35.63;19.82;;;;;;;4.59;65.90;101788.93;1840452;77;21002;-62
2020/12/18 06:15:33;;;;;;;33.20;18.73;;;;;;;4.63;65.62;101782.14;1840732;78;21411;-62
2020/12/18 06:18:04;;;;;;;37.67;18.75;;;;;;;4.62;65.72;101783.17;1785417;78;21490;-65
2020/12/18 06:20:35;;;;;;;34.23;18.73;;;;;;;4.61;65.73;101786.03;1840952;78;20912;-62
2020/12/18 06:23:04;;;;;;;30.40;17.37;;;;;;;4.58;65.77;101788.61;1811454;78;21754;-63
2020/12/18 06:25:41;;;;;;;33.78;17.00;;;;;;;4.57;65.76;101784.77;1778003;78;21580;-57
2020/12/18 06:28:11;;;;;;;32.90;17.73;;;;;;;4.56;65.69;101787.98;1773142;78;22156;-59
2020/12/18 06:30:58;;;;;;;28.35;16.15;;;;;;;4.57;65.67;101791.52;1839776;78;22029;-58
2020/12/18 06:33:56;;;;;;;29.90;17.07;;;;;;;4.54;65.74;101780.58;1888083;76;22392;-57
2020/12/18 06:36:51;;;;;;;28.85;16.95;;;;;;;4.57;65.64;101796.91;1724547;80;20981;-66
2020/12/18 06:39:30;;;;;;;27.73;15.58;;;;;;;4.55;65.62;101797.07;1771514;81;21166;-67
2020/12/18 06:42:21;;;;;;;32.27;17.83;;;;;;;4.55;65.54;101797.58;1774724;80;21091;-65
2020/12/18 06:45:09;;;;;;;30.12;17.82;;;;;;;4.52;65.53;101798.81;1773224;81;21623;-65
2020/12/18 06:47:56;;;;;;;30.10;17.57;;;;;;;4.52;65.72;101804.20;1768074;80;20930;-63
2020/12/18 06:50:40;;;;;;;27.97;16.37;;;;;;;4.57;65.65;101799.08;1872871;75;22391;-70
2020/12/18 06:53:19;;;;;;;29.18;16.75;;;;;;;4.53;65.60;101809.08;1840827;78;21584;-62
2020/12/18 06:55:49;;;;;;;30.15;17.67;;;;;;;4.51;65.53;101809.28;1809242;77;21288;-63
2020/12/18 06:58:34;;;;;;;31.82;18.98;;;;;;;4.47;65.67;101817.41;1734003;81;20935;-62
2020/12/18 07:01:04;;;;;;;32.78;18.70;;;;;;;4.48;65.71;101816.39;1810228;78;21189;-61
2020/12/18 07:03:49;;;;;;;33.60;19.90;;;;;;;4.51;65.82;101822.76;1840936;77;20971;-62
2020/12/18 07:06:23;;;;;;;34.07;20.60;;;;;;;4.56;65.91;101818.12;1811019;78;20924;-62
2020/12/18 07:08:50;;;;;;;37.63;21.48;;;;;;;4.58;65.78;101814.73;1840972;77;21356;-63
2020/12/18 07:11:20;;;;;;;38.10;20.43;;;;;;;4.62;65.74;101816.03;1840435;77;21576;-63
2020/12/18 07:13:52;;;;;;;34.00;21.00;;;;;;;4.65;65.49;101813.77;1840612;78;21050;-61
2020/12/18 07:16:39;;;;;;;38.15;21.10;;;;;;;4.61;65.48;101816.55;1841103;77;21485;-61
2020/12/18 07:19:07;;;;;;;34.25;19.85;;;;;;;4.58;65.59;101817.44;1840976;77;21158;-61
2020/12/18 07:21:37;;;;;;;35.55;20.48;;;;;;;4.58;65.63;101816.92;1840472;78;21290;-59
2020/12/18 07:24:05;;;;;;;36.17;20.65;;;;;;;4.59;65.69;101813.70;1841056;77;21117;-63
2020/12/18 07:26:33;;;;;;;30.90;18.62;;;;;;;4.55;65.54;101814.59;1785016;78;21014;-63
2020/12/18 07:29:02;;;;;;;33.90;18.05;;;;;;;4.52;65.64;101812.30;1840923;78;21073;-62
2020/12/18 07:31:34;;;;;;;32.65;15.83;;;;;;;4.52;65.63;101816.85;1784937;78;20987;-62
2020/12/18 07:34:04;;;;;;;28.90;15.85;;;;;;;4.56;65.61;101822.16;1840427;77;21356;-62
2020/12/18 07:36:31;;;;;;;28.00;13.90;;;;;;;4.57;65.56;101815.25;1840504;78;21205;-63
2020/12/18 07:39:00;;;;;;;26.85;15.30;;;;;;;4.56;65.46;101816.28;1841010;78;20919;-62
2020/12/18 07:41:33;;;;;;;32.08;15.90;;;;;;;4.57;65.47;101817.12;1841174;77;20919;-63
2020/12/18 07:44:07;;;;;;;24.07;13.10;;;;;;;4.56;65.62;101815.42;1839969;77;21556;-61
2020/12/18 07:46:36;;;;;;;29.05;15.93;;;;;;;4.58;65.56;101812.05;1825782;77;21478;-59
2020/12/18 07:49:13;;;;;;;24.10;13.48;;;;;;;4.58;65.54;101818.78;1793424;79;21024;-61
2020/12/18 07:51:42;;;;;;;23.22;13.95;;;;;;;4.58;65.52;101815.57;1798148;79;21995;-59
2020/12/18 07:54:16;;;;;;;20.52;12.82;;;;;;;4.58;65.49;101814.73;1798416;79;21080;-59
2020/12/18 07:56:44;;;;;;;23.05;13.85;;;;;;;4.56;65.43;101817.63;1798062;79;20985;-62
2020/12/18 07:59:12;;;;;;;24.40;13.85;;;;;;;4.54;65.48;101818.83;1798290;79;21190;-60
2020/12/18 08:01:41;;;;;;;22.80;13.45;;;;;;;4.57;65.47;101818.47;1797770;79;21470;-61
2020/12/18 08:04:12;;;;;;;25.43;13.48;;;;;;;4.56;65.50;101823.03;1797626;79;21151;-68
2020/12/18 08:06:42;;;;;;;24.00;13.20;;;;;;;4.58;65.55;101828.22;1797803;79;21182;-61
2020/12/18 08:09:13;;;;;;;26.35;13.20;;;;;;;4.58;65.52;101825.00;1797537;79;21012;-65
2020/12/18 08:11:48;;;;;;;;;;;;;;;4.57;65.50;101825.20;1800552;79;21075;-62
2020/12/18 08:14:18;;;;;;;26.00;12.82;;;;;;;4.54;65.42;101823.70;1808461;78;21626;-62
2020/12/18 08:16:47;;;;;;;23.38;12.88;;;;;;;4.50;65.45;101825.62;1797734;79;21129;-63
2020/12/18 08:19:16;;;;;;;31.27;13.62;;;;;;;4.48;65.57;101824.98;1797529;79;21107;-65
2020/12/18 08:24:31;;;;;;;32.10;12.40;;;;;;;4.51;65.70;101817.84;1887835;76;22810;-74
2020/12/18 08:27:17;;;;;;;23.45;10.70;;;;;;;4.48;65.71;101824.47;1775015;80;21575;-75
2020/12/18 08:29:46;;;;;;;33.75;12.58;;;;;;;4.49;65.46;101814.52;1773447;81;21344;-74
2020/12/18 08:32:26;;;;;;;21.50;11.28;;;;;;;4.52;65.57;101823.08;1774459;80;20945;-67
2020/12/18 08:35:00;;;;;;;19.02;10.63;;;;;;;4.55;65.66;101816.45;1762956;81;21623;-68
2020/12/18 08:37:28;;;;;;;17.62;10.00;;;;;;;4.55;65.60;101815.11;1728423;80;21747;-70
2020/12/18 08:39:56;;;;;;;15.93;8.18;;;;;;;4.56;65.58;101808.20;1793925;79;21598;-61
2020/12/18 08:42:24;;;;;;;12.43;7.60;;;;;;;4.57;65.35;101800.95;1774391;80;21392;-54
2020/12/18 08:44:52;;;;;;;16.85;8.08;;;;;;;4.58;65.01;101806.66;1774566;80;21806;-56
2020/12/18 08:47:26;;;;;;;19.90;9.53;;;;;;;4.61;64.82;101811.64;1789045;79;21041;-50
2020/12/18 08:50:13;;;;;;;14.75;8.78;;;;;;;4.60;64.64;101816.20;1806647;79;21076;-53
2020/12/18 08:52:41;;;;;;;16.75;9.48;;;;;;;4.59;64.68;101815.89;1751442;79;21076;-56
2020/12/18 08:55:09;;;;;;;18.30;9.73;;;;;;;4.62;64.59;101811.99;1806460;79;21842;-53
2020/12/18 08:57:37;;;;;;;18.07;9.63;;;;;;;4.64;64.34;101798.63;1806518;79;21177;-52
2020/12/18 09:00:16;;;;;;;18.98;10.58;;;;;;;4.65;64.23;101796.25;1806525;79;21472;-53
2020/12/18 09:02:53;;;;;;;12.85;8.05;;;;;;;4.65;64.27;101788.16;1806585;79;21183;-51
2020/12/18 09:05:32;;;;;;;12.10;7.90;;;;;;;4.68;63.71;101783.75;1802629;79;21128;-50
2020/12/18 09:08:16;;;;;;;15.15;9.40;;;;;;;4.62;63.61;101785.03;1806628;79;21354;-50
2020/12/18 09:10:46;;;;;;;16.60;9.90;;;;;;;4.66;63.83;101783.12;1806404;79;20986;-52
2020/12/18 09:13:21;;;;;;;19.70;10.60;;;;;;;4.66;63.78;101785.81;1804210;79;21543;-53
2020/12/18 09:16:01;;;;;;;18.32;11.15;;;;;;;4.67;63.82;101780.73;1806693;79;21009;-53
2020/12/18 09:18:38;;;;;;;12.88;7.45;;;;;;;4.73;63.79;101780.48;1806284;79;21487;-50
2020/12/18 09:21:19;;;;;;;13.38;7.92;;;;;;;4.76;63.62;101781.95;1803642;79;21364;-53
2020/12/18 09:23:56;;;;;;;12.03;6.67;;;;;;;4.80;63.60;101781.89;1819324;77;23402;-50
2020/12/18 09:26:28;;;;;;;11.33;6.90;;;;;;;4.76;63.48;101785.47;1755462;81;21017;-50
2020/12/18 09:28:57;;;;;;;10.05;6.90;;;;;;;4.75;63.45;101784.33;1765534;81;21405;-50
2020/12/18 09:31:25;;;;;;;9.80;6.47;;;;;;;4.73;63.53;101778.30;1765809;81;21039;-49
2020/12/18 09:33:53;;;;;;;14.20;7.97;;;;;;;4.73;63.69;101777.78;1765740;81;21474;-56
2020/12/18 09:36:22;;;;;;;13.40;7.80;;;;;;;4.76;63.55;101780.08;1765020;81;21092;-54
2020/12/18 09:38:54;;;;;;;11.35;7.55;;;;;;;4.79;63.57;101777.53;1765572;81;20965;-52
2020/12/18 09:41:22;;;;;;;11.53;7.72;;;;;;;4.81;63.66;101772.25;1765544;81;22080;-51
2020/12/18 09:43:50;;;;;;;11.00;7.42;;;;;;;4.86;63.47;101773.86;1765811;81;20996;-51
2020/12/18 09:46:22;;;;;;;11.28;7.35;;;;;;;4.88;63.21;101770.47;1764929;81;21183;-51
2020/12/18 09:49:07;;;;;;;10.68;7.35;;;;;;;4.89;63.27;101771.30;1733810;82;20985;-51
2020/12/18 09:51:35;;;;;;;12.53;7.17;;;;;;;4.90;63.15;101761.66;1733372;82;21017;-50
2020/12/18 09:54:03;;;;;;;11.00;7.20;;;;;;;4.89;62.91;101763.21;1734514;82;23584;-51
2020/12/18 09:56:34;;;;;;;9.78;6.67;;;;;;;4.88;62.83;101760.20;1733642;82;21032;-52
2020/12/18 09:59:02;;;;;;;11.97;7.17;;;;;;;4.89;62.98;101763.21;1734412;82;21122;-53
2020/12/18 10:01:30;;;;;;;11.80;6.92;;;;;;;4.90;63.05;101763.01;1734519;82;21187;-50
2020/12/18 10:03:58;;;;;;;9.30;6.70;;;;;;;4.94;63.08;101760.77;1734288;82;21210;-50
2020/12/18 10:06:27;;;;;;;9.80;7.55;;;;;;;4.94;63.09;101758.91;1734352;82;21202;-53
2020/12/18 10:08:55;;;;;;;11.83;7.37;;;;;;;4.93;63.14;101765.33;1734310;82;21155;-53
2020/12/18 10:11:29;;;;;;;9.48;5.47;;;;;;;4.97;63.10;101762.23;1734314;82;21052;-51
2020/12/18 10:13:57;;;;;;;8.88;6.03;;;;;;;5.00;62.88;101765.38;1734616;82;21044;-50
2020/12/18 10:16:25;;;;;;;7.03;5.40;;;;;;;5.02;62.22;101770.09;1734185;82;21147;-50
2020/12/18 10:18:54;;;;;;;9.33;6.55;;;;;;;4.99;62.09;101768.28;1734452;82;21381;-50
2020/12/18 10:21:22;;;;;;;8.40;5.80;;;;;;;4.96;62.21;101761.40;1734409;82;21148;-51
2020/12/18 10:23:49;;;;;;;9.03;6.10;;;;;;;4.93;62.23;101765.33;1723091;82;21006;-50
2020/12/18 10:26:18;;;;;;;9.38;6.65;;;;;;;4.90;62.24;101759.48;1720855;83;21024;-52
2020/12/18 10:28:46;;;;;;;9.70;7.33;;;;;;;4.89;62.45;101754.60;1698169;83;21024;-52
2020/12/18 10:31:15;;;;;;;11.18;7.12;;;;;;;4.89;62.57;101752.42;1720804;83;21205;-53
2020/12/18 10:33:43;;;;;;;8.00;6.80;;;;;;;4.90;62.64;101752.22;1720579;82;21120;-52
2020/12/18 10:36:11;;;;;;;10.50;7.92;;;;;;;4.94;62.80;101744.59;1720732;83;21014;-50
2020/12/18 10:38:40;;;;;;;10.13;7.15;;;;;;;4.98;62.63;101743.70;1720131;83;21041;-54
2020/12/18 10:41:08;;;;;;;9.33;6.40;;;;;;;4.97;62.65;101748.26;1720457;83;21504;-50
2020/12/18 10:43:37;;;;;;;8.20;6.55;;;;;;;4.99;62.63;101739.44;1720311;83;21911;-54
2020/12/18 10:46:05;;;;;;;7.20;5.50;;;;;;;5.04;62.47;101733.47;1720577;83;21128;-48
2020/12/18 10:48:34;;;;;;;7.30;6.05;;;;;;;5.07;62.23;101737.97;1735593;81;20953;-52
2020/12/18 10:51:02;;;;;;;10.20;6.33;;;;;;;5.06;61.97;101733.58;1735643;82;21036;-52
2020/12/18 10:53:30;;;;;;;8.93;6.53;;;;;;;5.01;61.97;101730.62;1735634;82;21570;-52
2020/12/18 10:56:01;;;;;;;9.53;7.20;;;;;;;5.00;61.93;101724.09;1710441;82;21594;-50
2020/12/18 10:58:29;;;;;;;7.53;6.35;;;;;;;5.00;62.00;101720.05;1735613;82;21064;-50
2020/12/18 11:00:58;;;;;;;12.68;7.87;;;;;;;5.00;62.22;101724.09;1734855;82;21630;-54
2020/12/18 11:03:26;;;;;;;8.83;6.58;;;;;;;5.04;62.49;101722.16;1735849;82;20925;-50
2020/12/18 11:05:53;;;;;;;8.30;7.08;;;;;;;5.09;62.38;101718.36;1735471;82;20958;-50
2020/12/18 11:08:21;;;;;;;10.43;6.95;;;;;;;5.13;62.26;101716.12;1735682;82;21259;-51
2020/12/18 11:13:45;;;;;;;13.63;7.03;;;;;;;5.18;61.95;101715.02;1812335;78;22369;-54
2020/12/18 11:16:16;;;;;;;11.50;7.17;;;;;;;5.13;62.02;101719.64;1783017;80;21111;-54
2020/12/18 11:18:46;;;;;;;12.45;7.75;;;;;;;5.15;61.87;101720.79;1783416;80;21341;-54
2020/12/18 11:21:14;;;;;;;14.07;7.28;;;;;;;5.17;61.97;101723.62;1783233;80;21935;-51
2020/12/18 11:23:42;;;;;;;10.55;6.95;;;;;;;5.19;62.04;101719.38;1783449;80;20974;-52
2020/12/18 11:26:11;;;;;;;11.12;7.12;;;;;;;5.16;61.76;101723.80;1783398;80;21049;-46
2020/12/18 11:28:39;;;;;;;9.48;7.08;;;;;;;5.12;61.81;101718.47;1783360;80;20993;-52
2020/12/18 11:31:07;;;;;;;10.35;6.87;;;;;;;5.07;61.86;101721.78;1783448;80;21219;-51
2020/12/18 11:33:35;;;;;;;11.80;7.10;;;;;;;5.04;61.96;101728.91;1783027;80;21606;-49
2020/12/18 11:36:02;;;;;;;13.62;8.43;;;;;;;5.03;61.93;101715.10;1783221;80;20982;-49
2020/12/18 11:38:49;;;;;;;12.07;8.50;;;;;;;5.03;61.93;101717.80;1783573;80;21015;-51
2020/12/18 11:41:20;;;;;;;11.95;8.40;;;;;;;5.04;62.11;101718.63;1782954;80;21032;-49
2020/12/18 11:43:49;;;;;;;9.98;7.37;;;;;;;5.04;62.23;101721.33;1780377;80;21484;-52
2020/12/18 11:46:19;;;;;;;10.38;8.30;;;;;;;5.07;62.29;101719.09;1782880;80;21151;-53
2020/12/18 11:48:47;;;;;;;11.68;8.83;;;;;;;5.05;62.24;101709.50;1689223;83;21162;-53
2020/12/18 11:51:16;;;;;;;9.78;8.23;;;;;;;5.03;62.41;101717.80;1686374;85;21622;-53